sensor_id;sensor_type;location;lat;lon;timestamp;P1;durP1;ratioP1;P2;durP2;ratioP2
31808;SDS011;18379;48.208;-1.518;2024-02-28T00:04:00;21.03;;;18.83;;
31808;SDS011;18379;48.208;-1.518;2024-02-28T00:09:01;21.33;;;19.10;;
31808;SDS011;18379;48.208;-1.518;2024-02-28T00:14:01;20.67;;;18.57;;
31808;SDS011;18379;48.208;-1.518;2024-02-28T00:19:02;21.87;;;19.50;;
31808;SDS011;18379;48.208;-1.518;2024-02-28T00:24:03;21.40;;;18.83;;
31808;SDS011;18379;48.208;-1.518;2024-02-28T00:29:04;24.87;;;20.20;;
31808;SDS011;18379;48.208;-1.518;2024-02-28T00:34:04;45.80;;;25.70;;
31808;SDS011;18379;48.208;-1.518;2024-02-28T00:39:06;25.90;;;20.37;;
31808;SDS011;18379;48.208;-1.518;2024-02-28T00:44:07;22.87;;;19.73;;
31808;SDS011;18379;48.208;-1.518;2024-02-28T00:49:08;25.30;;;19.67;;
31808;SDS011;18379;48.208;-1.518;2024-02-28T00:54:09;22.20;;;19.80;;
31808;SDS011;18379;48.208;-1.518;2024-02-28T00:59:10;22.90;;;20.23;;
31808;SDS011;18379;48.208;-1.518;2024-02-28T01:04:12;25.17;;;20.23;;
31808;SDS011;18379;48.208;-1.518;2024-02-28T01:09:13;24.07;;;21.47;;
31808;SDS011;18379;48.208;-1.518;2024-02-28T01:14:14;25.77;;;21.37;;
31808;SDS011;18379;48.208;-1.518;2024-02-28T01:19:15;24.00;;;21.47;;
31808;SDS011;18379;48.208;-1.518;2024-02-28T01:24:16;22.73;;;20.33;;
31808;SDS011;18379;48.208;-1.518;2024-02-28T01:29:17;23.37;;;20.60;;
31808;SDS011;18379;48.208;-1.518;2024-02-28T01:34:17;23.77;;;20.00;;
31808;SDS011;18379;48.208;-1.518;2024-02-28T01:39:18;22.20;;;19.90;;
31808;SDS011;18379;48.208;-1.518;2024-02-28T01:44:19;21.27;;;19.03;;
31808;SDS011;18379;48.208;-1.518;2024-02-28T01:49:20;20.53;;;18.53;;
31808;SDS011;18379;48.208;-1.518;2024-02-28T01:54:21;20.80;;;18.70;;
31808;SDS011;18379;48.208;-1.518;2024-02-28T01:59:23;21.13;;;19.13;;
31808;SDS011;18379;48.208;-1.518;2024-02-28T02:04:26;21.03;;;18.87;;
31808;SDS011;18379;48.208;-1.518;2024-02-28T02:09:26;20.40;;;18.47;;
31808;SDS011;18379;48.208;-1.518;2024-02-28T02:14:27;20.47;;;18.47;;
31808;SDS011;18379;48.208;-1.518;2024-02-28T02:19:28;20.03;;;17.87;;
31808;SDS011;18379;48.208;-1.518;2024-02-28T02:24:28;20.27;;;18.13;;
31808;SDS011;18379;48.208;-1.518;2024-02-28T02:29:29;19.60;;;17.60;;
31808;SDS011;18379;48.208;-1.518;2024-02-28T02:34:30;18.60;;;16.90;;
31808;SDS011;18379;48.208;-1.518;2024-02-28T02:39:30;20.87;;;17.80;;
31808;SDS011;18379;48.208;-1.518;2024-02-28T02:44:31;19.13;;;17.13;;
31808;SDS011;18379;48.208;-1.518;2024-02-28T02:49:32;18.80;;;17.00;;
31808;SDS011;18379;48.208;-1.518;2024-02-28T02:54:34;18.53;;;16.83;;
31808;SDS011;18379;48.208;-1.518;2024-02-28T02:59:36;19.33;;;17.33;;
31808;SDS011;18379;48.208;-1.518;2024-02-28T03:04:37;18.47;;;16.60;;
31808;SDS011;18379;48.208;-1.518;2024-02-28T03:09:38;19.27;;;17.53;;
31808;SDS011;18379;48.208;-1.518;2024-02-28T03:14:38;18.27;;;16.57;;
31808;SDS011;18379;48.208;-1.518;2024-02-28T03:19:39;18.93;;;17.13;;
31808;SDS011;18379;48.208;-1.518;2024-02-28T03:24:39;20.50;;;18.37;;
31808;SDS011;18379;48.208;-1.518;2024-02-28T03:29:40;19.47;;;17.50;;
31808;SDS011;18379;48.208;-1.518;2024-02-28T03:34:41;19.27;;;17.43;;
31808;SDS011;18379;48.208;-1.518;2024-02-28T03:39:41;19.23;;;17.43;;
31808;SDS011;18379;48.208;-1.518;2024-02-28T03:44:42;19.07;;;17.07;;
31808;SDS011;18379;48.208;-1.518;2024-02-28T03:49:43;18.67;;;16.97;;
31808;SDS011;18379;48.208;-1.518;2024-02-28T03:54:44;18.30;;;16.60;;
31808;SDS011;18379;48.208;-1.518;2024-02-28T03:59:45;19.73;;;17.63;;
31808;SDS011;18379;48.208;-1.518;2024-02-28T04:04:45;19.10;;;17.17;;
31808;SDS011;18379;48.208;-1.518;2024-02-28T04:09:46;18.23;;;16.50;;
31808;SDS011;18379;48.208;-1.518;2024-02-28T04:14:46;18.17;;;16.43;;
31808;SDS011;18379;48.208;-1.518;2024-02-28T04:19:47;18.30;;;16.63;;
31808;SDS011;18379;48.208;-1.518;2024-02-28T04:24:48;18.17;;;16.27;;
31808;SDS011;18379;48.208;-1.518;2024-02-28T04:29:48;18.03;;;16.33;;
31808;SDS011;18379;48.208;-1.518;2024-02-28T04:34:50;18.20;;;16.60;;
31808;SDS011;18379;48.208;-1.518;2024-02-28T04:39:50;18.37;;;16.70;;
31808;SDS011;18379;48.208;-1.518;2024-02-28T04:44:51;18.23;;;16.53;;
31808;SDS011;18379;48.208;-1.518;2024-02-28T04:49:52;18.40;;;16.63;;
31808;SDS011;18379;48.208;-1.518;2024-02-28T04:54:52;18.43;;;16.80;;
31808;SDS011;18379;48.208;-1.518;2024-02-28T04:59:53;18.70;;;16.90;;
31808;SDS011;18379;48.208;-1.518;2024-02-28T05:04:54;18.97;;;17.17;;
31808;SDS011;18379;48.208;-1.518;2024-02-28T05:09:54;19.20;;;17.37;;
31808;SDS011;18379;48.208;-1.518;2024-02-28T05:14:55;18.87;;;16.93;;
31808;SDS011;18379;48.208;-1.518;2024-02-28T05:19:56;19.43;;;17.73;;
31808;SDS011;18379;48.208;-1.518;2024-02-28T05:24:57;18.93;;;17.33;;
31808;SDS011;18379;48.208;-1.518;2024-02-28T05:29:57;18.30;;;16.60;;
31808;SDS011;18379;48.208;-1.518;2024-02-28T05:34:58;23.07;;;17.10;;
31808;SDS011;18379;48.208;-1.518;2024-02-28T05:39:59;18.83;;;17.00;;
31808;SDS011;18379;48.208;-1.518;2024-02-28T05:45:00;28.60;;;16.97;;
31808;SDS011;18379;48.208;-1.518;2024-02-28T05:50:01;19.53;;;15.83;;
31808;SDS011;18379;48.208;-1.518;2024-02-28T05:55:01;18.83;;;17.13;;
31808;SDS011;18379;48.208;-1.518;2024-02-28T06:00:02;18.57;;;16.77;;
31808;SDS011;18379;48.208;-1.518;2024-02-28T06:05:09;19.40;;;17.53;;
31808;SDS011;18379;48.208;-1.518;2024-02-28T06:10:10;19.23;;;17.27;;
31808;SDS011;18379;48.208;-1.518;2024-02-28T06:15:11;19.03;;;17.13;;
31808;SDS011;18379;48.208;-1.518;2024-02-28T06:20:11;19.83;;;17.73;;
31808;SDS011;18379;48.208;-1.518;2024-02-28T06:25:12;19.00;;;17.10;;
31808;SDS011;18379;48.208;-1.518;2024-02-28T06:30:22;18.17;;;16.57;;
31808;SDS011;18379;48.208;-1.518;2024-02-28T06:35:22;18.87;;;17.07;;
31808;SDS011;18379;48.208;-1.518;2024-02-28T06:40:23;20.10;;;17.27;;
31808;SDS011;18379;48.208;-1.518;2024-02-28T06:45:24;21.57;;;17.87;;
31808;SDS011;18379;48.208;-1.518;2024-02-28T06:50:24;19.27;;;17.43;;
31808;SDS011;18379;48.208;-1.518;2024-02-28T06:55:25;19.80;;;17.90;;
31808;SDS011;18379;48.208;-1.518;2024-02-28T07:00:25;20.10;;;18.10;;
31808;SDS011;18379;48.208;-1.518;2024-02-28T07:05:26;19.93;;;17.93;;
31808;SDS011;18379;48.208;-1.518;2024-02-28T07:10:27;20.83;;;18.30;;
31808;SDS011;18379;48.208;-1.518;2024-02-28T07:15:27;24.17;;;18.03;;
31808;SDS011;18379;48.208;-1.518;2024-02-28T07:20:28;19.30;;;17.30;;
31808;SDS011;18379;48.208;-1.518;2024-02-28T07:25:29;20.87;;;18.03;;
31808;SDS011;18379;48.208;-1.518;2024-02-28T07:30:30;27.83;;;20.47;;
31808;SDS011;18379;48.208;-1.518;2024-02-28T07:35:31;23.37;;;19.50;;
31808;SDS011;18379;48.208;-1.518;2024-02-28T07:40:31;24.30;;;19.00;;
31808;SDS011;18379;48.208;-1.518;2024-02-28T07:45:32;21.93;;;19.63;;
31808;SDS011;18379;48.208;-1.518;2024-02-28T07:50:33;23.63;;;19.00;;
31808;SDS011;18379;48.208;-1.518;2024-02-28T07:55:33;21.60;;;19.07;;
31808;SDS011;18379;48.208;-1.518;2024-02-28T08:00:34;21.27;;;18.87;;
31808;SDS011;18379;48.208;-1.518;2024-02-28T08:05:35;21.97;;;19.37;;
31808;SDS011;18379;48.208;-1.518;2024-02-28T08:10:39;23.47;;;19.13;;
31808;SDS011;18379;48.208;-1.518;2024-02-28T08:15:40;25.03;;;19.87;;
31808;SDS011;18379;48.208;-1.518;2024-02-28T08:20:40;49.30;;;20.43;;
31808;SDS011;18379;48.208;-1.518;2024-02-28T08:25:42;22.93;;;19.90;;
31808;SDS011;18379;48.208;-1.518;2024-02-28T08:30:42;20.40;;;18.53;;
31808;SDS011;18379;48.208;-1.518;2024-02-28T08:35:43;20.43;;;18.50;;
31808;SDS011;18379;48.208;-1.518;2024-02-28T08:40:44;22.53;;;18.57;;
31808;SDS011;18379;48.208;-1.518;2024-02-28T08:45:45;22.50;;;18.70;;
31808;SDS011;18379;48.208;-1.518;2024-02-28T08:50:46;31.03;;;17.73;;
31808;SDS011;18379;48.208;-1.518;2024-02-28T08:55:46;29.97;;;19.70;;
31808;SDS011;18379;48.208;-1.518;2024-02-28T09:00:47;26.27;;;20.07;;
31808;SDS011;18379;48.208;-1.518;2024-02-28T09:05:47;24.10;;;19.80;;
31808;SDS011;18379;48.208;-1.518;2024-02-28T09:10:48;41.17;;;19.83;;
31808;SDS011;18379;48.208;-1.518;2024-02-28T09:15:49;34.60;;;19.67;;
31808;SDS011;18379;48.208;-1.518;2024-02-28T09:20:49;24.27;;;20.17;;
31808;SDS011;18379;48.208;-1.518;2024-02-28T09:25:50;21.67;;;18.37;;
31808;SDS011;18379;48.208;-1.518;2024-02-28T09:30:51;20.60;;;18.60;;
31808;SDS011;18379;48.208;-1.518;2024-02-28T09:35:51;23.90;;;19.60;;
31808;SDS011;18379;48.208;-1.518;2024-02-28T09:40:52;30.50;;;20.10;;
31808;SDS011;18379;48.208;-1.518;2024-02-28T09:45:54;22.67;;;19.40;;
31808;SDS011;18379;48.208;-1.518;2024-02-28T09:50:59;26.47;;;19.37;;
31808;SDS011;18379;48.208;-1.518;2024-02-28T09:56:00;33.90;;;19.37;;
31808;SDS011;18379;48.208;-1.518;2024-02-28T10:01:01;33.80;;;19.43;;
31808;SDS011;18379;48.208;-1.518;2024-02-28T10:06:04;43.40;;;19.87;;
31808;SDS011;18379;48.208;-1.518;2024-02-28T10:11:05;25.30;;;19.37;;
31808;SDS011;18379;48.208;-1.518;2024-02-28T10:16:06;31.90;;;19.60;;
31808;SDS011;18379;48.208;-1.518;2024-02-28T10:21:07;24.57;;;19.37;;
31808;SDS011;18379;48.208;-1.518;2024-02-28T10:26:11;31.43;;;20.73;;
31808;SDS011;18379;48.208;-1.518;2024-02-28T10:31:12;23.27;;;20.17;;
31808;SDS011;18379;48.208;-1.518;2024-02-28T10:36:14;22.30;;;20.20;;
31808;SDS011;18379;48.208;-1.518;2024-02-28T10:41:15;26.60;;;20.70;;
31808;SDS011;18379;48.208;-1.518;2024-02-28T10:46:16;28.47;;;22.07;;
31808;SDS011;18379;48.208;-1.518;2024-02-28T10:51:23;24.80;;;22.17;;
31808;SDS011;18379;48.208;-1.518;2024-02-28T10:56:27;28.37;;;23.30;;
31808;SDS011;18379;48.208;-1.518;2024-02-28T11:01:30;24.07;;;21.70;;
31808;SDS011;18379;48.208;-1.518;2024-02-28T11:06:31;22.73;;;20.73;;
31808;SDS011;18379;48.208;-1.518;2024-02-28T11:11:32;22.10;;;20.20;;
31808;SDS011;18379;48.208;-1.518;2024-02-28T11:16:33;21.83;;;19.83;;
31808;SDS011;18379;48.208;-1.518;2024-02-28T11:21:34;22.20;;;20.20;;
31808;SDS011;18379;48.208;-1.518;2024-02-28T11:26:35;23.27;;;20.80;;
31808;SDS011;18379;48.208;-1.518;2024-02-28T11:31:36;22.67;;;20.70;;
31808;SDS011;18379;48.208;-1.518;2024-02-28T11:36:36;24.70;;;21.53;;
31808;SDS011;18379;48.208;-1.518;2024-02-28T11:41:37;24.10;;;21.83;;
31808;SDS011;18379;48.208;-1.518;2024-02-28T11:46:46;24.63;;;22.17;;
31808;SDS011;18379;48.208;-1.518;2024-02-28T11:51:47;22.13;;;20.23;;
31808;SDS011;18379;48.208;-1.518;2024-02-28T11:56:48;22.13;;;20.13;;
31808;SDS011;18379;48.208;-1.518;2024-02-28T12:01:49;22.87;;;20.67;;
31808;SDS011;18379;48.208;-1.518;2024-02-28T12:06:51;24.37;;;22.07;;
31808;SDS011;18379;48.208;-1.518;2024-02-28T12:11:52;22.57;;;20.57;;
31808;SDS011;18379;48.208;-1.518;2024-02-28T12:16:53;25.73;;;23.17;;
31808;SDS011;18379;48.208;-1.518;2024-02-28T12:21:53;24.67;;;22.37;;
31808;SDS011;18379;48.208;-1.518;2024-02-28T12:26:54;23.93;;;21.83;;
31808;SDS011;18379;48.208;-1.518;2024-02-28T12:31:55;24.23;;;21.93;;
31808;SDS011;18379;48.208;-1.518;2024-02-28T12:36:56;24.20;;;22.00;;
31808;SDS011;18379;48.208;-1.518;2024-02-28T12:41:56;23.00;;;20.97;;
31808;SDS011;18379;48.208;-1.518;2024-02-28T12:46:57;25.00;;;22.70;;
31808;SDS011;18379;48.208;-1.518;2024-02-28T12:51:58;23.40;;;21.47;;
31808;SDS011;18379;48.208;-1.518;2024-02-28T12:56:58;22.13;;;20.33;;
31808;SDS011;18379;48.208;-1.518;2024-02-28T13:02:02;22.40;;;20.60;;
31808;SDS011;18379;48.208;-1.518;2024-02-28T13:07:03;23.20;;;21.40;;
31808;SDS011;18379;48.208;-1.518;2024-02-28T13:12:04;23.37;;;21.37;;
31808;SDS011;18379;48.208;-1.518;2024-02-28T13:17:05;23.00;;;21.10;;
31808;SDS011;18379;48.208;-1.518;2024-02-28T13:22:07;22.87;;;20.97;;
31808;SDS011;18379;48.208;-1.518;2024-02-28T13:27:08;21.63;;;20.03;;
31808;SDS011;18379;48.208;-1.518;2024-02-28T13:32:09;22.70;;;20.90;;
31808;SDS011;18379;48.208;-1.518;2024-02-28T13:37:09;21.60;;;20.00;;
31808;SDS011;18379;48.208;-1.518;2024-02-28T13:42:10;22.33;;;20.57;;
31808;SDS011;18379;48.208;-1.518;2024-02-28T13:47:11;21.73;;;20.03;;
31808;SDS011;18379;48.208;-1.518;2024-02-28T13:52:13;23.30;;;21.40;;
31808;SDS011;18379;48.208;-1.518;2024-02-28T13:57:14;23.30;;;21.40;;
31808;SDS011;18379;48.208;-1.518;2024-02-28T14:02:15;22.77;;;20.97;;
31808;SDS011;18379;48.208;-1.518;2024-02-28T14:07:16;23.07;;;21.10;;
31808;SDS011;18379;48.208;-1.518;2024-02-28T14:12:17;23.83;;;21.93;;
31808;SDS011;18379;48.208;-1.518;2024-02-28T14:17:18;24.17;;;22.10;;
31808;SDS011;18379;48.208;-1.518;2024-02-28T14:22:18;22.03;;;20.30;;
31808;SDS011;18379;48.208;-1.518;2024-02-28T14:27:19;23.03;;;21.03;;
31808;SDS011;18379;48.208;-1.518;2024-02-28T14:32:20;21.80;;;20.10;;
31808;SDS011;18379;48.208;-1.518;2024-02-28T14:37:20;23.67;;;21.67;;
31808;SDS011;18379;48.208;-1.518;2024-02-28T14:42:21;24.50;;;22.20;;
31808;SDS011;18379;48.208;-1.518;2024-02-28T14:47:22;22.10;;;20.40;;
31808;SDS011;18379;48.208;-1.518;2024-02-28T14:52:23;23.10;;;21.20;;
31808;SDS011;18379;48.208;-1.518;2024-02-28T14:57:25;22.10;;;20.33;;
31808;SDS011;18379;48.208;-1.518;2024-02-28T15:02:25;22.47;;;20.77;;
31808;SDS011;18379;48.208;-1.518;2024-02-28T15:07:26;22.07;;;20.37;;
31808;SDS011;18379;48.208;-1.518;2024-02-28T15:12:27;22.17;;;20.27;;
31808;SDS011;18379;48.208;-1.518;2024-02-28T15:17:28;22.17;;;20.47;;
31808;SDS011;18379;48.208;-1.518;2024-02-28T15:22:29;22.03;;;20.40;;
31808;SDS011;18379;48.208;-1.518;2024-02-28T15:27:30;21.57;;;19.87;;
31808;SDS011;18379;48.208;-1.518;2024-02-28T15:32:30;21.70;;;20.00;;
31808;SDS011;18379;48.208;-1.518;2024-02-28T15:37:32;22.70;;;20.67;;
31808;SDS011;18379;48.208;-1.518;2024-02-28T15:42:34;21.63;;;19.97;;
31808;SDS011;18379;48.208;-1.518;2024-02-28T15:47:35;22.13;;;20.53;;
31808;SDS011;18379;48.208;-1.518;2024-02-28T15:52:36;21.30;;;19.80;;
31808;SDS011;18379;48.208;-1.518;2024-02-28T15:57:37;20.50;;;19.00;;
31808;SDS011;18379;48.208;-1.518;2024-02-28T16:02:37;21.10;;;19.60;;
31808;SDS011;18379;48.208;-1.518;2024-02-28T16:07:39;22.00;;;20.30;;
31808;SDS011;18379;48.208;-1.518;2024-02-28T16:12:42;25.37;;;23.00;;
31808;SDS011;18379;48.208;-1.518;2024-02-28T16:17:42;27.03;;;24.43;;
31808;SDS011;18379;48.208;-1.518;2024-02-28T16:22:43;27.60;;;24.93;;
31808;SDS011;18379;48.208;-1.518;2024-02-28T16:27:43;30.40;;;27.33;;
31808;SDS011;18379;48.208;-1.518;2024-02-28T16:32:45;25.77;;;23.47;;
31808;SDS011;18379;48.208;-1.518;2024-02-28T16:37:45;23.63;;;21.63;;
31808;SDS011;18379;48.208;-1.518;2024-02-28T16:42:47;23.93;;;21.90;;
31808;SDS011;18379;48.208;-1.518;2024-02-28T16:47:47;23.60;;;21.60;;
31808;SDS011;18379;48.208;-1.518;2024-02-28T16:52:48;23.30;;;21.30;;
31808;SDS011;18379;48.208;-1.518;2024-02-28T16:57:49;21.77;;;20.07;;
31808;SDS011;18379;48.208;-1.518;2024-02-28T17:02:49;23.73;;;21.80;;
31808;SDS011;18379;48.208;-1.518;2024-02-28T17:07:50;21.03;;;19.43;;
31808;SDS011;18379;48.208;-1.518;2024-02-28T17:12:52;22.80;;;20.90;;
31808;SDS011;18379;48.208;-1.518;2024-02-28T17:17:52;22.07;;;20.27;;
31808;SDS011;18379;48.208;-1.518;2024-02-28T17:22:53;22.20;;;20.40;;
31808;SDS011;18379;48.208;-1.518;2024-02-28T17:27:53;23.97;;;21.77;;
31808;SDS011;18379;48.208;-1.518;2024-02-28T17:32:54;33.43;;;28.80;;
31808;SDS011;18379;48.208;-1.518;2024-02-28T17:37:55;23.27;;;21.27;;
31808;SDS011;18379;48.208;-1.518;2024-02-28T17:42:56;20.17;;;18.73;;
31808;SDS011;18379;48.208;-1.518;2024-02-28T17:47:56;20.60;;;19.10;;
31808;SDS011;18379;48.208;-1.518;2024-02-28T17:52:57;20.53;;;18.97;;
31808;SDS011;18379;48.208;-1.518;2024-02-28T17:57:58;22.00;;;20.30;;
31808;SDS011;18379;48.208;-1.518;2024-02-28T18:02:59;20.57;;;19.00;;
31808;SDS011;18379;48.208;-1.518;2024-02-28T18:08:00;20.03;;;18.63;;
31808;SDS011;18379;48.208;-1.518;2024-02-28T18:13:01;23.33;;;21.43;;
31808;SDS011;18379;48.208;-1.518;2024-02-28T18:18:03;21.07;;;19.47;;
31808;SDS011;18379;48.208;-1.518;2024-02-28T18:23:03;20.53;;;18.93;;
31808;SDS011;18379;48.208;-1.518;2024-02-28T18:28:04;20.83;;;18.93;;
31808;SDS011;18379;48.208;-1.518;2024-02-28T18:33:05;21.03;;;19.33;;
31808;SDS011;18379;48.208;-1.518;2024-02-28T18:38:06;21.57;;;19.77;;
31808;SDS011;18379;48.208;-1.518;2024-02-28T18:43:06;22.37;;;20.47;;
31808;SDS011;18379;48.208;-1.518;2024-02-28T18:48:07;19.17;;;17.77;;
31808;SDS011;18379;48.208;-1.518;2024-02-28T18:53:08;26.50;;;23.47;;
31808;SDS011;18379;48.208;-1.518;2024-02-28T18:58:08;21.97;;;20.17;;
31808;SDS011;18379;48.208;-1.518;2024-02-28T19:03:09;21.77;;;19.97;;
31808;SDS011;18379;48.208;-1.518;2024-02-28T19:08:10;20.70;;;19.00;;
31808;SDS011;18379;48.208;-1.518;2024-02-28T19:13:10;20.30;;;18.63;;
31808;SDS011;18379;48.208;-1.518;2024-02-28T19:18:12;20.37;;;18.77;;
31808;SDS011;18379;48.208;-1.518;2024-02-28T19:23:13;19.27;;;17.90;;
31808;SDS011;18379;48.208;-1.518;2024-02-28T19:28:14;18.93;;;17.63;;
31808;SDS011;18379;48.208;-1.518;2024-02-28T19:33:15;18.00;;;16.90;;
31808;SDS011;18379;48.208;-1.518;2024-02-28T19:38:15;20.53;;;18.60;;
31808;SDS011;18379;48.208;-1.518;2024-02-28T19:43:16;27.23;;;21.50;;
31808;SDS011;18379;48.208;-1.518;2024-02-28T19:48:17;19.90;;;18.27;;
31808;SDS011;18379;48.208;-1.518;2024-02-28T19:53:17;27.27;;;22.80;;
31808;SDS011;18379;48.208;-1.518;2024-02-28T19:58:20;21.27;;;19.53;;
31808;SDS011;18379;48.208;-1.518;2024-02-28T20:03:21;19.10;;;17.63;;
31808;SDS011;18379;48.208;-1.518;2024-02-28T20:08:22;20.20;;;18.73;;
31808;SDS011;18379;48.208;-1.518;2024-02-28T20:13:22;22.33;;;20.53;;
31808;SDS011;18379;48.208;-1.518;2024-02-28T20:18:23;25.17;;;22.70;;
31808;SDS011;18379;48.208;-1.518;2024-02-28T20:23:26;19.27;;;17.70;;
31808;SDS011;18379;48.208;-1.518;2024-02-28T20:28:26;23.17;;;21.20;;
31808;SDS011;18379;48.208;-1.518;2024-02-28T20:33:27;21.77;;;20.03;;
31808;SDS011;18379;48.208;-1.518;2024-02-28T20:38:28;19.27;;;17.77;;
31808;SDS011;18379;48.208;-1.518;2024-02-28T20:43:30;20.33;;;18.40;;
31808;SDS011;18379;48.208;-1.518;2024-02-28T20:48:31;19.77;;;18.07;;
31808;SDS011;18379;48.208;-1.518;2024-02-28T20:53:32;24.80;;;22.30;;
31808;SDS011;18379;48.208;-1.518;2024-02-28T20:58:33;23.40;;;21.10;;
31808;SDS011;18379;48.208;-1.518;2024-02-28T21:03:35;19.00;;;17.60;;
31808;SDS011;18379;48.208;-1.518;2024-02-28T21:08:36;20.37;;;18.77;;
31808;SDS011;18379;48.208;-1.518;2024-02-28T21:13:36;18.33;;;16.93;;
31808;SDS011;18379;48.208;-1.518;2024-02-28T21:18:37;19.30;;;17.70;;
31808;SDS011;18379;48.208;-1.518;2024-02-28T21:23:38;18.90;;;17.60;;
31808;SDS011;18379;48.208;-1.518;2024-02-28T21:28:39;18.37;;;16.93;;
31808;SDS011;18379;48.208;-1.518;2024-02-28T21:33:40;19.93;;;18.33;;
31808;SDS011;18379;48.208;-1.518;2024-02-28T21:38:41;17.80;;;16.53;;
31808;SDS011;18379;48.208;-1.518;2024-02-28T21:43:47;18.07;;;16.83;;
31808;SDS011;18379;48.208;-1.518;2024-02-28T21:48:48;18.83;;;17.53;;
31808;SDS011;18379;48.208;-1.518;2024-02-28T21:53:48;19.63;;;18.03;;
31808;SDS011;18379;48.208;-1.518;2024-02-28T21:58:49;18.03;;;16.73;;
31808;SDS011;18379;48.208;-1.518;2024-02-28T22:03:50;18.57;;;17.27;;
31808;SDS011;18379;48.208;-1.518;2024-02-28T22:08:50;18.77;;;17.37;;
31808;SDS011;18379;48.208;-1.518;2024-02-28T22:13:54;18.30;;;17.00;;
31808;SDS011;18379;48.208;-1.518;2024-02-28T22:18:55;18.23;;;16.70;;
31808;SDS011;18379;48.208;-1.518;2024-02-28T22:23:56;19.27;;;17.93;;
31808;SDS011;18379;48.208;-1.518;2024-02-28T22:28:57;17.57;;;16.30;;
31808;SDS011;18379;48.208;-1.518;2024-02-28T22:33:58;17.50;;;16.30;;
31808;SDS011;18379;48.208;-1.518;2024-02-28T22:38:59;17.20;;;16.20;;
31808;SDS011;18379;48.208;-1.518;2024-02-28T22:43:59;18.67;;;17.27;;
31808;SDS011;18379;48.208;-1.518;2024-02-28T22:49:00;19.13;;;17.67;;
31808;SDS011;18379;48.208;-1.518;2024-02-28T22:54:03;18.13;;;16.80;;
31808;SDS011;18379;48.208;-1.518;2024-02-28T22:59:04;18.50;;;16.87;;
31808;SDS011;18379;48.208;-1.518;2024-02-28T23:04:05;18.03;;;16.63;;
31808;SDS011;18379;48.208;-1.518;2024-02-28T23:09:05;17.80;;;16.47;;
31808;SDS011;18379;48.208;-1.518;2024-02-28T23:14:06;18.20;;;16.90;;
31808;SDS011;18379;48.208;-1.518;2024-02-28T23:19:07;17.87;;;16.20;;
31808;SDS011;18379;48.208;-1.518;2024-02-28T23:24:08;17.73;;;16.50;;
31808;SDS011;18379;48.208;-1.518;2024-02-28T23:29:09;18.20;;;16.70;;
31808;SDS011;18379;48.208;-1.518;2024-02-28T23:34:09;17.63;;;16.33;;
31808;SDS011;18379;48.208;-1.518;2024-02-28T23:39:12;17.20;;;16.00;;
31808;SDS011;18379;48.208;-1.518;2024-02-28T23:44:13;17.77;;;16.47;;
31808;SDS011;18379;48.208;-1.518;2024-02-28T23:49:13;17.50;;;16.20;;
31808;SDS011;18379;48.208;-1.518;2024-02-28T23:54:14;17.63;;;16.50;;
31808;SDS011;18379;48.208;-1.518;2024-02-28T23:59:14;17.37;;;16.00;;
